sensor_id;sensor_type;location;lat;lon;timestamp;P1;durP1;ratioP1;P2;durP2;ratioP2
2313;SDS011;42279;51.388;7.000;2022-11-20T00:00:45;20.73;;;13.80;;
2313;SDS011;42279;51.388;7.000;2022-11-20T00:03:12;24.45;;;17.33;;
2313;SDS011;42279;51.388;7.000;2022-11-20T00:05:38;20.35;;;15.77;;
2313;SDS011;42279;51.388;7.000;2022-11-20T00:08:04;25.73;;;16.05;;
2313;SDS011;42279;51.388;7.000;2022-11-20T00:10:30;19.35;;;16.05;;
2313;SDS011;42279;51.388;7.000;2022-11-20T00:12:59;20.75;;;15.35;;
2313;SDS011;42279;51.388;7.000;2022-11-20T00:15:25;20.58;;;16.40;;
2313;SDS011;42279;51.388;7.000;2022-11-20T00:17:51;20.40;;;15.10;;
2313;SDS011;42279;51.388;7.000;2022-11-20T00:20:17;24.13;;;15.90;;
2313;SDS011;42279;51.388;7.000;2022-11-20T00:22:43;19.95;;;16.48;;
2313;SDS011;42279;51.388;7.000;2022-11-20T00:25:09;22.70;;;16.70;;
2313;SDS011;42279;51.388;7.000;2022-11-20T00:27:36;26.60;;;17.02;;
2313;SDS011;42279;51.388;7.000;2022-11-20T00:30:04;22.95;;;16.65;;
2313;SDS011;42279;51.388;7.000;2022-11-20T00:32:31;20.38;;;15.52;;
2313;SDS011;42279;51.388;7.000;2022-11-20T00:34:57;21.83;;;16.02;;
2313;SDS011;42279;51.388;7.000;2022-11-20T00:37:23;23.40;;;15.97;;
2313;SDS011;42279;51.388;7.000;2022-11-20T00:39:49;20.20;;;13.90;;
2313;SDS011;42279;51.388;7.000;2022-11-20T00:42:15;19.80;;;14.03;;
2313;SDS011;42279;51.388;7.000;2022-11-20T00:44:41;21.80;;;15.63;;
2313;SDS011;42279;51.388;7.000;2022-11-20T00:47:07;20.88;;;15.23;;
2313;SDS011;42279;51.388;7.000;2022-11-20T00:49:33;22.55;;;15.27;;
2313;SDS011;42279;51.388;7.000;2022-11-20T00:51:59;23.17;;;16.80;;
2313;SDS011;42279;51.388;7.000;2022-11-20T00:54:25;22.50;;;16.97;;
2313;SDS011;42279;51.388;7.000;2022-11-20T00:56:54;22.13;;;14.87;;
2313;SDS011;42279;51.388;7.000;2022-11-20T00:59:20;26.10;;;15.90;;
2313;SDS011;42279;51.388;7.000;2022-11-20T01:01:46;22.00;;;15.53;;
2313;SDS011;42279;51.388;7.000;2022-11-20T01:04:12;20.13;;;14.38;;
2313;SDS011;42279;51.388;7.000;2022-11-20T01:06:39;23.15;;;16.70;;
2313;SDS011;42279;51.388;7.000;2022-11-20T01:09:10;21.40;;;15.57;;
2313;SDS011;42279;51.388;7.000;2022-11-20T01:11:37;21.73;;;16.05;;
2313;SDS011;42279;51.388;7.000;2022-11-20T01:14:05;24.83;;;16.50;;
2313;SDS011;42279;51.388;7.000;2022-11-20T01:16:36;19.80;;;13.80;;
2313;SDS011;42279;51.388;7.000;2022-11-20T01:19:03;21.95;;;16.10;;
2313;SDS011;42279;51.388;7.000;2022-11-20T01:21:30;27.80;;;16.30;;
2313;SDS011;42279;51.388;7.000;2022-11-20T01:23:57;24.38;;;16.60;;
2313;SDS011;42279;51.388;7.000;2022-11-20T01:26:25;23.60;;;15.48;;
2313;SDS011;42279;51.388;7.000;2022-11-20T01:28:51;18.52;;;14.57;;
2313;SDS011;42279;51.388;7.000;2022-11-20T01:31:28;20.42;;;15.00;;
2313;SDS011;42279;51.388;7.000;2022-11-20T01:33:55;21.10;;;15.27;;
2313;SDS011;42279;51.388;7.000;2022-11-20T01:36:22;22.67;;;16.30;;
2313;SDS011;42279;51.388;7.000;2022-11-20T01:38:52;22.35;;;16.15;;
2313;SDS011;42279;51.388;7.000;2022-11-20T01:41:18;21.17;;;15.85;;
2313;SDS011;42279;51.388;7.000;2022-11-20T01:44:03;20.27;;;14.63;;
2313;SDS011;42279;51.388;7.000;2022-11-20T01:46:30;17.80;;;13.68;;
2313;SDS011;42279;51.388;7.000;2022-11-20T01:48:58;18.77;;;14.77;;
2313;SDS011;42279;51.388;7.000;2022-11-20T01:51:28;24.00;;;15.90;;
2313;SDS011;42279;51.388;7.000;2022-11-20T01:53:55;19.48;;;15.45;;
2313;SDS011;42279;51.388;7.000;2022-11-20T01:56:23;19.98;;;14.73;;
2313;SDS011;42279;51.388;7.000;2022-11-20T01:58:51;25.00;;;16.58;;
2313;SDS011;42279;51.388;7.000;2022-11-20T02:01:17;20.27;;;16.30;;
2313;SDS011;42279;51.388;7.000;2022-11-20T02:03:44;17.70;;;13.57;;
2313;SDS011;42279;51.388;7.000;2022-11-20T02:06:12;19.40;;;14.48;;
2313;SDS011;42279;51.388;7.000;2022-11-20T02:08:40;23.08;;;16.30;;
2313;SDS011;42279;51.388;7.000;2022-11-20T02:11:06;18.63;;;15.30;;
2313;SDS011;42279;51.388;7.000;2022-11-20T02:13:33;19.08;;;14.35;;
2313;SDS011;42279;51.388;7.000;2022-11-20T02:16:10;25.38;;;17.60;;
2313;SDS011;42279;51.388;7.000;2022-11-20T02:18:36;20.05;;;15.32;;
2313;SDS011;42279;51.388;7.000;2022-11-20T02:26:19;23.45;;;15.68;;
2313;SDS011;42279;51.388;7.000;2022-11-20T02:28:45;24.00;;;14.50;;
2313;SDS011;42279;51.388;7.000;2022-11-20T02:31:11;19.57;;;14.70;;
2313;SDS011;42279;51.388;7.000;2022-11-20T02:33:37;22.93;;;16.60;;
2313;SDS011;42279;51.388;7.000;2022-11-20T02:36:03;20.40;;;16.00;;
2313;SDS011;42279;51.388;7.000;2022-11-20T02:38:30;23.17;;;15.75;;
2313;SDS011;42279;51.388;7.000;2022-11-20T02:40:56;18.60;;;13.67;;
2313;SDS011;42279;51.388;7.000;2022-11-20T02:43:22;20.05;;;14.75;;
2313;SDS011;42279;51.388;7.000;2022-11-20T02:45:48;19.95;;;14.55;;
2313;SDS011;42279;51.388;7.000;2022-11-20T02:48:14;20.88;;;15.27;;
2313;SDS011;42279;51.388;7.000;2022-11-20T02:50:40;21.08;;;14.98;;
2313;SDS011;42279;51.388;7.000;2022-11-20T02:53:06;21.02;;;15.88;;
2313;SDS011;42279;51.388;7.000;2022-11-20T02:55:32;21.77;;;15.98;;
2313;SDS011;42279;51.388;7.000;2022-11-20T02:57:58;19.55;;;16.23;;
2313;SDS011;42279;51.388;7.000;2022-11-20T03:00:24;21.70;;;16.30;;
2313;SDS011;42279;51.388;7.000;2022-11-20T03:02:50;19.65;;;16.02;;
2313;SDS011;42279;51.388;7.000;2022-11-20T03:05:16;18.70;;;15.20;;
2313;SDS011;42279;51.388;7.000;2022-11-20T03:07:43;16.97;;;13.80;;
2313;SDS011;42279;51.388;7.000;2022-11-20T03:10:09;19.30;;;14.77;;
2313;SDS011;42279;51.388;7.000;2022-11-20T03:12:35;17.03;;;13.50;;
2313;SDS011;42279;51.388;7.000;2022-11-20T03:15:01;17.53;;;13.97;;
2313;SDS011;42279;51.388;7.000;2022-11-20T03:17:27;23.92;;;18.10;;
2313;SDS011;42279;51.388;7.000;2022-11-20T03:19:54;21.57;;;14.70;;
2313;SDS011;42279;51.388;7.000;2022-11-20T03:22:20;19.40;;;14.93;;
2313;SDS011;42279;51.388;7.000;2022-11-20T03:24:46;21.08;;;16.27;;
2313;SDS011;42279;51.388;7.000;2022-11-20T03:27:12;21.52;;;15.57;;
2313;SDS011;42279;51.388;7.000;2022-11-20T03:29:38;18.80;;;15.07;;
2313;SDS011;42279;51.388;7.000;2022-11-20T03:32:04;17.03;;;13.57;;
2313;SDS011;42279;51.388;7.000;2022-11-20T03:34:30;25.38;;;16.65;;
2313;SDS011;42279;51.388;7.000;2022-11-20T03:36:56;18.90;;;14.80;;
2313;SDS011;42279;51.388;7.000;2022-11-20T03:39:22;22.15;;;15.65;;
2313;SDS011;42279;51.388;7.000;2022-11-20T03:41:48;21.08;;;15.63;;
2313;SDS011;42279;51.388;7.000;2022-11-20T03:44:14;19.77;;;14.80;;
2313;SDS011;42279;51.388;7.000;2022-11-20T03:46:40;15.88;;;13.07;;
2313;SDS011;42279;51.388;7.000;2022-11-20T03:49:06;23.27;;;15.87;;
2313;SDS011;42279;51.388;7.000;2022-11-20T03:51:34;20.30;;;15.75;;
2313;SDS011;42279;51.388;7.000;2022-11-20T03:54:01;23.77;;;16.63;;
2313;SDS011;42279;51.388;7.000;2022-11-20T03:56:28;17.52;;;14.88;;
2313;SDS011;42279;51.388;7.000;2022-11-20T03:58:54;20.48;;;16.25;;
2313;SDS011;42279;51.388;7.000;2022-11-20T04:01:22;21.02;;;16.02;;
2313;SDS011;42279;51.388;7.000;2022-11-20T04:03:48;18.13;;;15.20;;
2313;SDS011;42279;51.388;7.000;2022-11-20T04:06:19;20.45;;;13.40;;
2313;SDS011;42279;51.388;7.000;2022-11-20T04:08:45;21.70;;;16.35;;
2313;SDS011;42279;51.388;7.000;2022-11-20T04:11:15;22.88;;;16.20;;
2313;SDS011;42279;51.388;7.000;2022-11-20T04:13:41;18.02;;;14.57;;
2313;SDS011;42279;51.388;7.000;2022-11-20T04:16:08;23.73;;;14.73;;
2313;SDS011;42279;51.388;7.000;2022-11-20T04:18:35;20.63;;;15.32;;
2313;SDS011;42279;51.388;7.000;2022-11-20T04:21:01;20.30;;;15.95;;
2313;SDS011;42279;51.388;7.000;2022-11-20T04:23:27;24.65;;;16.67;;
2313;SDS011;42279;51.388;7.000;2022-11-20T04:25:53;22.27;;;16.63;;
2313;SDS011;42279;51.388;7.000;2022-11-20T04:28:19;19.50;;;14.65;;
2313;SDS011;42279;51.388;7.000;2022-11-20T04:30:45;22.83;;;16.30;;
2313;SDS011;42279;51.388;7.000;2022-11-20T04:33:30;20.05;;;15.23;;
2313;SDS011;42279;51.388;7.000;2022-11-20T04:35:59;18.95;;;15.10;;
2313;SDS011;42279;51.388;7.000;2022-11-20T04:38:25;19.33;;;15.27;;
2313;SDS011;42279;51.388;7.000;2022-11-20T04:40:55;18.60;;;14.90;;
2313;SDS011;42279;51.388;7.000;2022-11-20T04:43:21;20.38;;;15.43;;
2313;SDS011;42279;51.388;7.000;2022-11-20T04:45:50;22.98;;;16.92;;
2313;SDS011;42279;51.388;7.000;2022-11-20T04:48:16;19.13;;;14.73;;
2313;SDS011;42279;51.388;7.000;2022-11-20T04:50:42;23.33;;;15.73;;
2313;SDS011;42279;51.388;7.000;2022-11-20T04:53:08;20.80;;;13.52;;
2313;SDS011;42279;51.388;7.000;2022-11-20T04:55:34;18.07;;;13.80;;
2313;SDS011;42279;51.388;7.000;2022-11-20T04:58:00;20.67;;;14.43;;
2313;SDS011;42279;51.388;7.000;2022-11-20T05:00:27;20.90;;;15.43;;
2313;SDS011;42279;51.388;7.000;2022-11-20T05:02:53;21.73;;;15.85;;
2313;SDS011;42279;51.388;7.000;2022-11-20T05:05:22;23.52;;;13.88;;
2313;SDS011;42279;51.388;7.000;2022-11-20T05:07:48;19.25;;;14.55;;
2313;SDS011;42279;51.388;7.000;2022-11-20T05:10:14;17.97;;;13.90;;
2313;SDS011;42279;51.388;7.000;2022-11-20T05:12:43;18.35;;;14.50;;
2313;SDS011;42279;51.388;7.000;2022-11-20T05:15:09;19.60;;;14.70;;
2313;SDS011;42279;51.388;7.000;2022-11-20T05:17:35;20.60;;;13.90;;
2313;SDS011;42279;51.388;7.000;2022-11-20T05:20:01;22.17;;;15.67;;
2313;SDS011;42279;51.388;7.000;2022-11-20T05:22:30;17.10;;;13.93;;
2313;SDS011;42279;51.388;7.000;2022-11-20T05:24:56;16.65;;;13.50;;
2313;SDS011;42279;51.388;7.000;2022-11-20T05:27:22;16.77;;;14.30;;
2313;SDS011;42279;51.388;7.000;2022-11-20T05:29:48;24.00;;;16.83;;
2313;SDS011;42279;51.388;7.000;2022-11-20T05:32:14;19.67;;;14.67;;
2313;SDS011;42279;51.388;7.000;2022-11-20T05:34:39;18.73;;;15.20;;
2313;SDS011;42279;51.388;7.000;2022-11-20T05:37:05;19.33;;;14.17;;
2313;SDS011;42279;51.388;7.000;2022-11-20T05:39:31;18.10;;;15.10;;
2313;SDS011;42279;51.388;7.000;2022-11-20T05:41:57;16.85;;;14.18;;
2313;SDS011;42279;51.388;7.000;2022-11-20T05:44:42;17.20;;;13.40;;
2313;SDS011;42279;51.388;7.000;2022-11-20T05:47:08;20.70;;;14.13;;
2313;SDS011;42279;51.388;7.000;2022-11-20T05:49:34;18.40;;;15.17;;
2313;SDS011;42279;51.388;7.000;2022-11-20T05:52:00;21.17;;;15.40;;
2313;SDS011;42279;51.388;7.000;2022-11-20T05:54:26;18.20;;;14.10;;
2313;SDS011;42279;51.388;7.000;2022-11-20T05:56:52;17.10;;;14.20;;
2313;SDS011;42279;51.388;7.000;2022-11-20T05:59:18;18.88;;;14.45;;
2313;SDS011;42279;51.388;7.000;2022-11-20T06:01:44;17.83;;;14.13;;
2313;SDS011;42279;51.388;7.000;2022-11-20T06:04:10;18.83;;;14.30;;
2313;SDS011;42279;51.388;7.000;2022-11-20T06:06:36;20.17;;;15.32;;
2313;SDS011;42279;51.388;7.000;2022-11-20T06:09:02;14.53;;;12.63;;
2313;SDS011;42279;51.388;7.000;2022-11-20T06:11:28;20.75;;;14.75;;
2313;SDS011;42279;51.388;7.000;2022-11-20T06:13:54;17.10;;;13.53;;
2313;SDS011;42279;51.388;7.000;2022-11-20T06:16:20;17.73;;;14.30;;
2313;SDS011;42279;51.388;7.000;2022-11-20T06:18:46;23.40;;;16.45;;
2313;SDS011;42279;51.388;7.000;2022-11-20T06:21:17;21.73;;;14.70;;
2313;SDS011;42279;51.388;7.000;2022-11-20T06:23:43;18.90;;;14.88;;
2313;SDS011;42279;51.388;7.000;2022-11-20T06:26:10;19.50;;;14.43;;
2313;SDS011;42279;51.388;7.000;2022-11-20T06:28:36;19.50;;;14.55;;
2313;SDS011;42279;51.388;7.000;2022-11-20T06:31:02;22.30;;;16.17;;
2313;SDS011;42279;51.388;7.000;2022-11-20T06:33:32;21.45;;;15.60;;
2313;SDS011;42279;51.388;7.000;2022-11-20T06:35:59;21.55;;;15.52;;
2313;SDS011;42279;51.388;7.000;2022-11-20T06:38:25;20.27;;;16.13;;
2313;SDS011;42279;51.388;7.000;2022-11-20T06:40:51;20.13;;;16.00;;
2313;SDS011;42279;51.388;7.000;2022-11-20T06:43:17;22.70;;;14.77;;
2313;SDS011;42279;51.388;7.000;2022-11-20T06:45:43;17.52;;;13.43;;
2313;SDS011;42279;51.388;7.000;2022-11-20T06:48:09;20.20;;;15.30;;
2313;SDS011;42279;51.388;7.000;2022-11-20T06:50:38;20.50;;;15.70;;
2313;SDS011;42279;51.388;7.000;2022-11-20T06:53:04;23.08;;;15.57;;
2313;SDS011;42279;51.388;7.000;2022-11-20T06:55:31;23.77;;;16.15;;
2313;SDS011;42279;51.388;7.000;2022-11-20T06:57:57;26.88;;;16.92;;
2313;SDS011;42279;51.388;7.000;2022-11-20T07:00:23;19.10;;;14.75;;
2313;SDS011;42279;51.388;7.000;2022-11-20T07:02:49;17.73;;;13.40;;
2313;SDS011;42279;51.388;7.000;2022-11-20T07:05:15;22.77;;;13.20;;
2313;SDS011;42279;51.388;7.000;2022-11-20T07:07:41;15.18;;;13.48;;
2313;SDS011;42279;51.388;7.000;2022-11-20T07:10:08;22.05;;;14.82;;
2313;SDS011;42279;51.388;7.000;2022-11-20T07:12:34;20.30;;;14.85;;
2313;SDS011;42279;51.388;7.000;2022-11-20T07:15:00;18.73;;;14.57;;
2313;SDS011;42279;51.388;7.000;2022-11-20T07:17:26;23.77;;;16.45;;
2313;SDS011;42279;51.388;7.000;2022-11-20T07:19:52;20.25;;;15.70;;
2313;SDS011;42279;51.388;7.000;2022-11-20T07:22:18;19.38;;;14.07;;
2313;SDS011;42279;51.388;7.000;2022-11-20T07:24:46;18.35;;;15.30;;
2313;SDS011;42279;51.388;7.000;2022-11-20T07:27:12;19.70;;;12.77;;
2313;SDS011;42279;51.388;7.000;2022-11-20T07:29:38;18.40;;;14.57;;
2313;SDS011;42279;51.388;7.000;2022-11-20T07:32:04;22.40;;;16.08;;
2313;SDS011;42279;51.388;7.000;2022-11-20T07:34:30;16.95;;;13.90;;
2313;SDS011;42279;51.388;7.000;2022-11-20T07:36:56;18.13;;;13.57;;
2313;SDS011;42279;51.388;7.000;2022-11-20T07:39:22;16.10;;;14.40;;
2313;SDS011;42279;51.388;7.000;2022-11-20T07:41:48;20.30;;;14.70;;
2313;SDS011;42279;51.388;7.000;2022-11-20T07:44:14;21.37;;;16.23;;
2313;SDS011;42279;51.388;7.000;2022-11-20T07:46:40;20.10;;;14.50;;
2313;SDS011;42279;51.388;7.000;2022-11-20T07:49:06;17.40;;;13.83;;
2313;SDS011;42279;51.388;7.000;2022-11-20T07:51:32;23.23;;;15.80;;
2313;SDS011;42279;51.388;7.000;2022-11-20T07:53:58;19.60;;;14.53;;
2313;SDS011;42279;51.388;7.000;2022-11-20T07:56:24;22.97;;;16.87;;
2313;SDS011;42279;51.388;7.000;2022-11-20T07:58:50;24.42;;;15.77;;
2313;SDS011;42279;51.388;7.000;2022-11-20T08:01:16;20.97;;;15.80;;
2313;SDS011;42279;51.388;7.000;2022-11-20T08:03:45;20.25;;;15.13;;
2313;SDS011;42279;51.388;7.000;2022-11-20T08:06:12;19.50;;;15.27;;
2313;SDS011;42279;51.388;7.000;2022-11-20T08:08:42;25.42;;;16.63;;
2313;SDS011;42279;51.388;7.000;2022-11-20T08:11:09;21.83;;;15.23;;
2313;SDS011;42279;51.388;7.000;2022-11-20T08:13:53;26.92;;;18.17;;
2313;SDS011;42279;51.388;7.000;2022-11-20T08:16:38;27.48;;;16.40;;
2313;SDS011;42279;51.388;7.000;2022-11-20T08:19:04;27.10;;;19.02;;
2313;SDS011;42279;51.388;7.000;2022-11-20T08:21:30;25.90;;;17.13;;
2313;SDS011;42279;51.388;7.000;2022-11-20T08:23:57;25.92;;;17.42;;
2313;SDS011;42279;51.388;7.000;2022-11-20T08:26:23;20.00;;;15.15;;
2313;SDS011;42279;51.388;7.000;2022-11-20T08:28:52;20.77;;;14.65;;
2313;SDS011;42279;51.388;7.000;2022-11-20T08:31:19;19.60;;;14.63;;
2313;SDS011;42279;51.388;7.000;2022-11-20T08:33:45;20.43;;;15.70;;
2313;SDS011;42279;51.388;7.000;2022-11-20T08:36:11;23.73;;;17.90;;
2313;SDS011;42279;51.388;7.000;2022-11-20T08:38:37;22.90;;;17.38;;
2313;SDS011;42279;51.388;7.000;2022-11-20T08:41:03;22.33;;;16.35;;
2313;SDS011;42279;51.388;7.000;2022-11-20T08:43:52;19.88;;;14.90;;
2313;SDS011;42279;51.388;7.000;2022-11-20T08:46:18;16.95;;;14.32;;
2313;SDS011;42279;51.388;7.000;2022-11-20T08:48:44;21.15;;;16.45;;
2313;SDS011;42279;51.388;7.000;2022-11-20T08:51:11;24.08;;;16.20;;
2313;SDS011;42279;51.388;7.000;2022-11-20T08:53:38;18.80;;;14.35;;
2313;SDS011;42279;51.388;7.000;2022-11-20T08:56:04;19.83;;;14.15;;
2313;SDS011;42279;51.388;7.000;2022-11-20T08:58:30;21.83;;;16.58;;
2313;SDS011;42279;51.388;7.000;2022-11-20T09:00:56;21.00;;;16.08;;
2313;SDS011;42279;51.388;7.000;2022-11-20T09:03:22;22.05;;;15.13;;
2313;SDS011;42279;51.388;7.000;2022-11-20T09:05:48;22.75;;;16.60;;
2313;SDS011;42279;51.388;7.000;2022-11-20T09:08:14;19.90;;;16.40;;
2313;SDS011;42279;51.388;7.000;2022-11-20T09:10:40;24.20;;;16.77;;
2313;SDS011;42279;51.388;7.000;2022-11-20T09:13:06;24.77;;;16.27;;
2313;SDS011;42279;51.388;7.000;2022-11-20T09:15:32;21.88;;;15.82;;
2313;SDS011;42279;51.388;7.000;2022-11-20T09:18:00;19.40;;;16.52;;
2313;SDS011;42279;51.388;7.000;2022-11-20T09:20:26;26.75;;;20.95;;
2313;SDS011;42279;51.388;7.000;2022-11-20T09:22:53;18.70;;;16.40;;
2313;SDS011;42279;51.388;7.000;2022-11-20T09:25:19;21.25;;;15.90;;
2313;SDS011;42279;51.388;7.000;2022-11-20T09:27:45;23.50;;;16.77;;
2313;SDS011;42279;51.388;7.000;2022-11-20T09:30:12;20.85;;;16.48;;
2313;SDS011;42279;51.388;7.000;2022-11-20T09:32:38;24.85;;;17.40;;
2313;SDS011;42279;51.388;7.000;2022-11-20T09:35:08;20.67;;;15.67;;
2313;SDS011;42279;51.388;7.000;2022-11-20T09:37:34;17.92;;;13.10;;
2313;SDS011;42279;51.388;7.000;2022-11-20T09:40:00;19.10;;;15.10;;
2313;SDS011;42279;51.388;7.000;2022-11-20T09:42:36;23.60;;;15.77;;
2313;SDS011;42279;51.388;7.000;2022-11-20T09:45:12;17.75;;;13.43;;
2313;SDS011;42279;51.388;7.000;2022-11-20T09:47:47;19.07;;;14.20;;
2313;SDS011;42279;51.388;7.000;2022-11-20T09:55:46;17.23;;;14.07;;
2313;SDS011;42279;51.388;7.000;2022-11-20T10:00:59;14.90;;;12.40;;
2313;SDS011;42279;51.388;7.000;2022-11-20T10:03:36;14.27;;;11.90;;
2313;SDS011;42279;51.388;7.000;2022-11-20T10:06:07;11.07;;;9.65;;
2313;SDS011;42279;51.388;7.000;2022-11-20T10:11:23;13.67;;;10.00;;
2313;SDS011;42279;51.388;7.000;2022-11-20T10:32:18;11.63;;;10.43;;
2313;SDS011;42279;51.388;7.000;2022-11-20T10:34:50;12.38;;;11.07;;
2313;SDS011;42279;51.388;7.000;2022-11-20T10:37:27;12.27;;;9.90;;
2313;SDS011;42279;51.388;7.000;2022-11-20T10:47:52;14.70;;;9.98;;
2313;SDS011;42279;51.388;7.000;2022-11-20T10:50:20;11.50;;;10.40;;
2313;SDS011;42279;51.388;7.000;2022-11-20T10:58:04;10.80;;;9.77;;
2313;SDS011;42279;51.388;7.000;2022-11-20T11:03:22;12.32;;;10.75;;
2313;SDS011;42279;51.388;7.000;2022-11-20T11:09:09;11.83;;;10.63;;
2313;SDS011;42279;51.388;7.000;2022-11-20T11:11:37;11.25;;;10.15;;
2313;SDS011;42279;51.388;7.000;2022-11-20T11:14:13;11.13;;;9.65;;
2313;SDS011;42279;51.388;7.000;2022-11-20T11:16:56;14.50;;;11.07;;
2313;SDS011;42279;51.388;7.000;2022-11-20T11:19:22;12.57;;;9.15;;
2313;SDS011;42279;51.388;7.000;2022-11-20T11:21:53;11.73;;;9.80;;
2313;SDS011;42279;51.388;7.000;2022-11-20T11:24:24;10.77;;;9.63;;
2313;SDS011;42279;51.388;7.000;2022-11-20T11:29:19;11.80;;;9.85;;
2313;SDS011;42279;51.388;7.000;2022-11-20T11:31:45;16.90;;;11.20;;
2313;SDS011;42279;51.388;7.000;2022-11-20T11:37:20;15.43;;;10.10;;
2313;SDS011;42279;51.388;7.000;2022-11-20T11:39:47;13.20;;;11.20;;
2313;SDS011;42279;51.388;7.000;2022-11-20T11:42:16;12.27;;;10.20;;
2313;SDS011;42279;51.388;7.000;2022-11-20T11:44:49;15.17;;;11.83;;
2313;SDS011;42279;51.388;7.000;2022-11-20T11:47:31;14.30;;;10.80;;
2313;SDS011;42279;51.388;7.000;2022-11-20T11:50:17;13.23;;;10.00;;
2313;SDS011;42279;51.388;7.000;2022-11-20T11:55:09;13.27;;;11.30;;
2313;SDS011;42279;51.388;7.000;2022-11-20T11:57:49;13.45;;;11.50;;
2313;SDS011;42279;51.388;7.000;2022-11-20T12:00:21;14.50;;;11.27;;
2313;SDS011;42279;51.388;7.000;2022-11-20T12:09:24;13.87;;;10.47;;
2313;SDS011;42279;51.388;7.000;2022-11-20T12:14:41;18.70;;;13.15;;
2313;SDS011;42279;51.388;7.000;2022-11-20T12:17:18;17.67;;;12.27;;
2313;SDS011;42279;51.388;7.000;2022-11-20T12:19:53;18.83;;;14.05;;
2313;SDS011;42279;51.388;7.000;2022-11-20T12:31:27;19.93;;;14.20;;
2313;SDS011;42279;51.388;7.000;2022-11-20T12:39:58;18.08;;;12.07;;
2313;SDS011;42279;51.388;7.000;2022-11-20T12:49:08;20.20;;;13.00;;
2313;SDS011;42279;51.388;7.000;2022-11-20T13:06:56;18.17;;;13.77;;
2313;SDS011;42279;51.388;7.000;2022-11-20T13:09:23;18.75;;;14.23;;
2313;SDS011;42279;51.388;7.000;2022-11-20T13:12:09;20.70;;;14.40;;
2313;SDS011;42279;51.388;7.000;2022-11-20T13:14:37;19.52;;;12.95;;
2313;SDS011;42279;51.388;7.000;2022-11-20T13:20:05;23.45;;;13.88;;
2313;SDS011;42279;51.388;7.000;2022-11-20T13:22:45;21.47;;;14.53;;
2313;SDS011;42279;51.388;7.000;2022-11-20T13:30:36;24.38;;;15.90;;
2313;SDS011;42279;51.388;7.000;2022-11-20T13:33:09;19.23;;;14.18;;
2313;SDS011;42279;51.388;7.000;2022-11-20T13:36:34;21.58;;;15.32;;
2313;SDS011;42279;51.388;7.000;2022-11-20T13:38:49;27.70;;;17.20;;
2313;SDS011;42279;51.388;7.000;2022-11-20T13:41:30;21.88;;;16.02;;
2313;SDS011;42279;51.388;7.000;2022-11-20T13:46:35;20.63;;;15.30;;
2313;SDS011;42279;51.388;7.000;2022-11-20T13:49:06;25.13;;;16.85;;
2313;SDS011;42279;51.388;7.000;2022-11-20T13:51:43;28.05;;;18.00;;
2313;SDS011;42279;51.388;7.000;2022-11-20T13:59:43;22.15;;;16.02;;
2313;SDS011;42279;51.388;7.000;2022-11-20T14:02:18;22.00;;;14.93;;
2313;SDS011;42279;51.388;7.000;2022-11-20T14:04:49;22.40;;;15.10;;
2313;SDS011;42279;51.388;7.000;2022-11-20T14:07:16;25.58;;;16.98;;
2313;SDS011;42279;51.388;7.000;2022-11-20T14:09:51;22.20;;;15.90;;
2313;SDS011;42279;51.388;7.000;2022-11-20T14:12:18;24.40;;;15.63;;
2313;SDS011;42279;51.388;7.000;2022-11-20T14:14:50;24.85;;;17.20;;
2313;SDS011;42279;51.388;7.000;2022-11-20T14:19:54;26.35;;;16.52;;
2313;SDS011;42279;51.388;7.000;2022-11-20T14:22:22;21.75;;;16.15;;
2313;SDS011;42279;51.388;7.000;2022-11-20T14:24:49;23.13;;;15.32;;
2313;SDS011;42279;51.388;7.000;2022-11-20T14:27:26;20.98;;;15.18;;
2313;SDS011;42279;51.388;7.000;2022-11-20T14:29:52;23.27;;;15.67;;
2313;SDS011;42279;51.388;7.000;2022-11-20T14:32:20;24.43;;;16.90;;
2313;SDS011;42279;51.388;7.000;2022-11-20T14:34:50;20.10;;;14.50;;
2313;SDS011;42279;51.388;7.000;2022-11-20T14:37:26;25.58;;;14.80;;
2313;SDS011;42279;51.388;7.000;2022-11-20T14:39:54;24.77;;;16.30;;
2313;SDS011;42279;51.388;7.000;2022-11-20T14:42:24;26.00;;;17.13;;
2313;SDS011;42279;51.388;7.000;2022-11-20T14:44:50;27.85;;;17.40;;
2313;SDS011;42279;51.388;7.000;2022-11-20T14:47:18;30.53;;;20.50;;
2313;SDS011;42279;51.388;7.000;2022-11-20T14:49:53;30.70;;;19.80;;
2313;SDS011;42279;51.388;7.000;2022-11-20T14:52:38;27.80;;;18.95;;
2313;SDS011;42279;51.388;7.000;2022-11-20T14:55:26;29.10;;;17.25;;
2313;SDS011;42279;51.388;7.000;2022-11-20T14:57:57;30.13;;;17.20;;
2313;SDS011;42279;51.388;7.000;2022-11-20T15:00:23;30.97;;;17.60;;
2313;SDS011;42279;51.388;7.000;2022-11-20T15:02:50;29.67;;;17.80;;
2313;SDS011;42279;51.388;7.000;2022-11-20T15:05:17;26.23;;;17.80;;
2313;SDS011;42279;51.388;7.000;2022-11-20T15:07:48;27.42;;;18.90;;
2313;SDS011;42279;51.388;7.000;2022-11-20T15:10:24;28.92;;;18.85;;
2313;SDS011;42279;51.388;7.000;2022-11-20T15:12:54;27.00;;;18.23;;
2313;SDS011;42279;51.388;7.000;2022-11-20T15:15:25;26.53;;;18.20;;
2313;SDS011;42279;51.388;7.000;2022-11-20T15:17:54;28.07;;;17.03;;
2313;SDS011;42279;51.388;7.000;2022-11-20T15:20:20;28.40;;;19.47;;
2313;SDS011;42279;51.388;7.000;2022-11-20T15:22:48;31.25;;;19.30;;
2313;SDS011;42279;51.388;7.000;2022-11-20T15:25:15;27.20;;;18.65;;
2313;SDS011;42279;51.388;7.000;2022-11-20T15:27:42;39.80;;;23.30;;
2313;SDS011;42279;51.388;7.000;2022-11-20T15:30:12;21.90;;;15.80;;
2313;SDS011;42279;51.388;7.000;2022-11-20T15:32:39;29.23;;;18.50;;
2313;SDS011;42279;51.388;7.000;2022-11-20T15:35:05;30.55;;;18.67;;
2313;SDS011;42279;51.388;7.000;2022-11-20T15:37:31;35.00;;;19.60;;
2313;SDS011;42279;51.388;7.000;2022-11-20T15:39:57;29.83;;;18.77;;
2313;SDS011;42279;51.388;7.000;2022-11-20T15:42:26;29.63;;;20.33;;
2313;SDS011;42279;51.388;7.000;2022-11-20T15:44:52;30.30;;;19.98;;
2313;SDS011;42279;51.388;7.000;2022-11-20T15:47:19;34.40;;;21.27;;
2313;SDS011;42279;51.388;7.000;2022-11-20T15:49:46;33.95;;;20.73;;
2313;SDS011;42279;51.388;7.000;2022-11-20T15:52:12;28.17;;;19.27;;
2313;SDS011;42279;51.388;7.000;2022-11-20T15:54:38;33.53;;;21.30;;
2313;SDS011;42279;51.388;7.000;2022-11-20T15:57:04;31.90;;;21.50;;
2313;SDS011;42279;51.388;7.000;2022-11-20T15:59:31;29.90;;;20.37;;
2313;SDS011;42279;51.388;7.000;2022-11-20T16:01:57;31.43;;;19.37;;
2313;SDS011;42279;51.388;7.000;2022-11-20T16:04:24;35.22;;;19.38;;
2313;SDS011;42279;51.388;7.000;2022-11-20T16:06:50;30.40;;;20.17;;
2313;SDS011;42279;51.388;7.000;2022-11-20T16:09:16;32.10;;;19.35;;
2313;SDS011;42279;51.388;7.000;2022-11-20T16:11:42;40.90;;;20.40;;
2313;SDS011;42279;51.388;7.000;2022-11-20T16:14:09;36.75;;;20.00;;
2313;SDS011;42279;51.388;7.000;2022-11-20T16:16:54;33.50;;;19.83;;
2313;SDS011;42279;51.388;7.000;2022-11-20T16:19:20;32.13;;;16.75;;
2313;SDS011;42279;51.388;7.000;2022-11-20T16:21:47;34.03;;;21.37;;
2313;SDS011;42279;51.388;7.000;2022-11-20T16:24:14;36.67;;;23.30;;
2313;SDS011;42279;51.388;7.000;2022-11-20T16:26:41;40.03;;;20.77;;
2313;SDS011;42279;51.388;7.000;2022-11-20T16:29:07;33.70;;;21.70;;
2313;SDS011;42279;51.388;7.000;2022-11-20T16:31:34;36.80;;;22.27;;
2313;SDS011;42279;51.388;7.000;2022-11-20T16:34:02;39.63;;;21.17;;
2313;SDS011;42279;51.388;7.000;2022-11-20T16:36:28;39.70;;;21.80;;
2313;SDS011;42279;51.388;7.000;2022-11-20T16:38:57;31.17;;;20.45;;
2313;SDS011;42279;51.388;7.000;2022-11-20T16:41:24;46.40;;;22.97;;
2313;SDS011;42279;51.388;7.000;2022-11-20T16:43:51;46.10;;;23.58;;
2313;SDS011;42279;51.388;7.000;2022-11-20T16:46:19;32.38;;;18.00;;
2313;SDS011;42279;51.388;7.000;2022-11-20T16:48:50;29.60;;;16.73;;